Time;durP1;ratioP1;P1;durP2;ratioP2;P2;SDS_P1;SDS_P2;PMS_P1;PMS_P2;Temp;Humidity;BMP_temperature;BMP_pressure;BME280_temperature;BME280_humidity;BME280_pressure;Samples;Min_cycle;Max_cycle;Signal;HPM_P1;HPM_P2
2023/03/19 10:11:11;;;;;;;18.80;10.90;;;10.10;99.30;;;;;;7953545;27;20312;-87
2023/03/19 10:15:09;;;;;;;19.93;10.77;;;10.30;99.90;;;;;;7919354;28;20195;-88
2023/03/19 10:18:58;;;;;;;18.67;10.70;;;10.50;98.90;;;;;;7913023;28;20188;-87
2023/03/19 10:22:49;;;;;;;19.17;11.50;;;10.70;98.80;;;;;;7917002;28;20313;-82
2023/03/19 10:26:35;;;;;;;18.40;10.57;;;10.90;98.20;;;;;;7932092;28;20218;-86
2023/03/19 10:30:20;;;;;;;20.67;11.10;;;11.00;98.00;;;;;;7934890;28;20272;-91
2023/03/19 10:34:14;;;;;;;20.43;10.60;;;11.10;97.30;;;;;;7922181;28;20200;-81
2023/03/19 10:38:19;;;;;;;22.10;11.43;;;11.20;98.20;;;;;;7912505;28;20223;-88
2023/03/19 10:42:17;;;;;;;17.37;10.47;;;11.30;96.70;;;;;;7926100;28;20176;-89
2023/03/19 10:46:03;;;;;;;17.10;10.37;;;11.30;96.30;;;;;;7923212;28;20202;-88
2023/03/19 10:49:50;;;;;;;22.97;10.47;;;11.30;95.70;;;;;;7912758;28;20200;-91
2023/03/19 10:53:40;;;;;;;21.47;11.33;;;11.30;95.40;;;;;;7924483;28;20196;-92
2023/03/19 10:57:27;;;;;;;20.80;11.20;;;11.30;96.30;;;;;;7953187;28;20280;-91
2023/03/19 11:01:15;;;;;;;19.57;11.13;;;11.40;96.70;;;;;;7945668;28;20200;-91
2023/03/19 11:05:23;;;;;;;19.10;11.47;;;11.40;96.60;;;;;;7942687;28;20199;-89
2023/03/19 11:09:12;;;;;;;19.87;10.87;;;11.50;97.50;;;;;;7918913;28;20298;-84
2023/03/19 11:13:03;;;;;;;22.03;11.87;;;11.60;98.10;;;;;;7913621;28;20263;-83
2023/03/19 11:16:55;;;;;;;20.57;11.43;;;11.70;95.90;;;;;;7921113;28;20187;-83
2023/03/19 11:20:42;;;;;;;19.90;10.60;;;11.70;97.70;;;;;;7907175;28;20180;-81
2023/03/19 11:24:32;;;;;;;16.77;10.63;;;11.80;96.70;;;;;;7920174;28;20277;-80
2023/03/19 11:28:25;;;;;;;17.33;11.03;;;11.90;96.80;;;;;;7905802;28;20197;-80
2023/03/19 11:32:35;;;;;;;19.23;10.67;;;11.90;96.30;;;;;;7904172;28;20654;-81
2023/03/19 11:36:38;;;;;;;17.17;10.50;;;11.90;95.60;;;;;;7884058;28;20201;-80
2023/03/19 11:40:40;;;;;;;20.20;10.83;;;12.00;95.40;;;;;;7882756;28;20193;-81
2023/03/19 11:44:39;;;;;;;16.50;10.17;;;12.10;94.90;;;;;;7894262;28;20601;-80
2023/03/19 11:49:09;;;;;;;16.03;9.97;;;12.20;95.40;;;;;;7879959;28;20295;-80
2023/03/19 11:52:57;;;;;;;17.43;10.50;;;12.20;96.20;;;;;;7794976;28;20217;-84
2023/03/19 11:56:49;;;;;;;17.97;10.40;;;12.30;96.80;;;;;;7803752;28;20619;-83
2023/03/19 12:00:40;;;;;;;23.90;10.80;;;12.30;96.80;;;;;;7797595;28;20187;-85
2023/03/19 12:04:37;;;;;;;18.23;10.57;;;12.40;96.80;;;;;;7798798;28;20203;-85
2023/03/19 12:08:46;;;;;;;19.77;11.00;;;12.40;96.10;;;;;;7787159;28;20218;-84
2023/03/19 12:12:43;;;;;;;31.90;12.17;;;12.50;95.60;;;;;;7810290;28;20257;-83
2023/03/19 12:16:44;;;;;;;18.10;11.13;;;12.50;95.40;;;;;;7803306;28;20213;-86
2023/03/19 12:20:33;;;;;;;18.53;10.90;;;12.50;95.20;;;;;;7798619;28;20750;-84
2023/03/19 12:24:33;;;;;;;48.07;12.67;;;12.50;93.10;;;;;;7794842;28;20210;-85
2023/03/19 12:28:24;;;;;;;16.40;9.97;;;12.60;95.30;;;;;;7854313;28;20220;-82
2023/03/19 12:32:32;;;;;;;21.23;11.53;;;12.60;94.50;;;;;;7896684;28;20188;-92
2023/03/19 12:36:26;;;;;;;18.27;10.03;;;12.50;94.60;;;;;;7903876;28;20230;-91
2023/03/19 12:40:27;;;;;;;22.47;11.47;;;12.60;94.80;;;;;;7904305;28;20180;-92
2023/03/19 12:44:20;;;;;;;18.23;11.27;;;12.70;95.40;;;;;;7903881;28;20200;-91
2023/03/19 12:48:09;;;;;;;21.10;11.43;;;12.70;94.90;;;;;;7903806;28;20224;-92
2023/03/19 12:52:15;;;;;;;18.17;11.37;;;12.80;95.60;;;;;;7902259;28;20180;-92
2023/03/19 12:56:13;;;;;;;19.23;11.10;;;12.90;95.60;;;;;;7906310;28;20180;-93
2023/03/19 13:00:17;;;;;;;20.07;11.63;;;12.90;94.60;;;;;;7902724;28;20203;-92
2023/03/19 13:04:19;;;;;;;23.77;11.83;;;12.90;95.00;;;;;;7905127;28;20202;-92
2023/03/19 13:08:20;;;;;;;20.23;11.53;;;13.00;93.90;;;;;;7902904;28;20590;-92
2023/03/19 13:12:21;;;;;;;21.57;12.27;;;13.00;94.40;;;;;;7938381;28;20240;-93
2023/03/19 13:16:31;;;;;;;21.83;11.87;;;13.10;94.30;;;;;;7906099;28;20215;-92
2023/03/19 13:20:43;;;;;;;20.60;11.70;;;13.20;95.30;;;;;;7932891;28;20188;-93
2023/03/19 13:24:52;;;;;;;20.57;11.20;;;13.00;94.40;;;;;;7896963;28;20221;-90
2023/03/19 13:29:07;;;;;;;20.77;11.30;;;13.20;94.60;;;;;;7910789;28;20208;-90
2023/03/19 13:33:02;;;;;;;19.97;11.30;;;13.20;94.00;;;;;;7904357;28;20185;-89
2023/03/19 13:37:11;;;;;;;21.17;11.30;;;13.20;95.00;;;;;;7895305;28;20180;-90
2023/03/19 13:40:58;;;;;;;17.80;11.43;;;13.20;95.00;;;;;;7902133;28;20188;-91
2023/03/19 13:44:56;;;;;;;20.83;11.43;;;13.20;95.80;;;;;;7899398;28;20215;-91
2023/03/19 13:48:44;;;;;;;20.33;11.27;;;13.20;95.40;;;;;;7907085;28;20257;-92
2023/03/19 13:52:30;;;;;;;28.77;12.33;;;13.30;95.70;;;;;;7894096;28;20561;-91
2023/03/19 13:56:15;;;;;;;18.50;11.00;;;13.30;96.20;;;;;;7898667;28;20232;-91
2023/03/19 14:00:42;;;;;;;23.70;11.40;;;13.40;96.40;;;;;;7891053;28;20223;-90
2023/03/19 14:04:33;;;;;;;19.40;11.47;;;13.30;96.70;;;;;;7886580;28;20204;-91
2023/03/19 14:08:28;;;;;;;17.90;11.17;;;13.40;97.20;;;;;;7918506;28;20211;-93
2023/03/19 14:12:17;;;;;;;21.00;11.10;;;13.40;97.70;;;;;;7918546;28;20168;-93
2023/03/19 14:16:25;;;;;;;21.10;11.47;;;13.40;98.10;;;;;;7927307;28;20215;-91
2023/03/19 14:20:11;;;;;;;17.83;10.77;;;13.30;97.50;;;;;;7892314;28;20260;-88
2023/03/19 14:24:26;;;;;;;20.77;11.73;;;13.30;97.20;;;;;;7868662;28;20201;-88
2023/03/19 14:28:17;;;;;;;21.67;11.67;;;13.30;97.10;;;;;;7868621;28;20231;-88
2023/03/19 14:32:08;;;;;;;21.53;12.83;;;13.20;96.70;;;;;;7900158;28;20181;-88
2023/03/19 14:35:56;;;;;;;22.43;12.53;;;13.20;97.60;;;;;;7904288;28;20196;-89
2023/03/19 14:39:44;;;;;;;22.20;12.33;;;13.20;98.10;;;;;;7892318;28;20213;-88
2023/03/19 14:43:54;;;;;;;20.10;12.50;;;13.20;97.00;;;;;;7884658;28;20261;-89
2023/03/19 14:48:06;;;;;;;18.97;12.13;;;13.20;96.60;;;;;;7899579;28;20266;-89
2023/03/19 14:52:10;;;;;;;16.63;11.40;;;13.20;97.20;;;;;;7896875;28;20176;-89
2023/03/19 14:56:09;;;;;;;18.60;11.07;;;13.20;97.70;;;;;;7910775;28;20211;-89
2023/03/19 14:59:56;;;;;;;16.93;11.47;;;13.20;98.40;;;;;;7924300;28;20195;-88
2023/03/19 15:03:41;;;;;;;20.43;12.00;;;13.20;98.70;;;;;;7900657;28;20196;-88
2023/03/19 15:07:32;;;;;;;17.53;11.80;;;13.20;99.30;;;;;;7873969;28;20213;-89
2023/03/19 15:11:49;;;;;;;20.47;11.47;;;13.20;99.70;;;;;;7874024;28;20181;-88
2023/03/19 15:15:49;;;;;;;19.07;11.27;;;13.30;99.20;;;;;;7840045;28;20610;-89
2023/03/19 15:19:37;;;;;;;19.37;11.60;;;13.20;97.20;;;;;;7851855;28;20185;-88
2023/03/19 15:23:27;;;;;;;19.90;12.40;;;13.20;97.20;;;;;;7863869;28;20198;-88
2023/03/19 15:27:25;;;;;;;19.30;12.67;;;13.20;97.60;;;;;;7871261;28;20602;-89
2023/03/19 15:31:11;;;;;;;20.83;12.50;;;13.10;97.60;;;;;;7852598;28;20295;-88
2023/03/19 15:34:57;;;;;;;21.03;12.60;;;13.10;98.70;;;;;;7868926;28;20193;-88
2023/03/19 15:38:55;;;;;;;18.53;11.93;;;13.10;99.20;;;;;;7869047;28;20240;-88
2023/03/19 15:42:42;;;;;;;19.17;12.33;;;13.10;99.90;;;;;;7825450;28;20672;-89
2023/03/19 15:46:32;;;;;;;22.43;12.50;;;13.20;99.90;;;;;;7878296;28;20998;-88
2023/03/19 15:50:21;;;;;;;21.20;12.77;;;13.10;99.90;;;;;;7886516;28;20762;-88
2023/03/19 15:54:08;;;;;;;23.40;14.07;;;13.20;99.90;;;;;;7908243;28;20216;-88
2023/03/19 15:57:56;;;;;;;19.40;13.00;;;13.10;99.90;;;;;;7903841;28;20204;-89
2023/03/19 16:01:42;;;;;;;20.80;13.20;;;13.10;99.90;;;;;;7903159;28;20637;-89
2023/03/19 16:05:30;;;;;;;34.53;21.83;;;13.10;99.90;;;;;;7919966;28;20561;-88
2023/03/19 16:09:30;;;;;;;37.37;21.60;;;13.10;99.90;;;;;;7925129;28;20265;-88
2023/03/19 16:13:36;;;;;;;46.07;24.23;;;13.10;99.80;;;;;;7906552;28;20199;-88
2023/03/19 16:17:33;;;;;;;32.73;19.37;;;13.10;99.90;;;;;;7921274;28;20176;-89
2023/03/19 16:21:32;;;;;;;31.00;17.53;;;13.20;99.90;;;;;;7925393;28;20172;-89
2023/03/19 16:25:19;;;;;;;36.90;18.20;;;13.10;99.60;;;;;;7905671;28;20192;-88
2023/03/19 16:29:22;;;;;;;27.53;16.63;;;13.10;99.90;;;;;;7897213;28;20284;-88
2023/03/19 16:33:12;;;;;;;26.83;15.50;;;13.10;98.70;;;;;;7902317;28;20200;-89
2023/03/19 16:36:57;;;;;;;30.17;15.13;;;13.10;97.40;;;;;;7902674;28;20226;-88
2023/03/19 16:40:45;;;;;;;21.50;12.60;;;13.10;96.50;;;;;;7897318;28;20189;-89
2023/03/19 16:44:31;;;;;;;20.20;11.33;;;13.10;97.10;;;;;;7936224;28;20216;-88
2023/03/19 16:48:17;;;;;;;14.83;8.67;;;13.10;97.60;;;;;;7905654;28;20581;-88
2023/03/19 16:52:05;;;;;;;10.27;5.73;;;13.00;99.90;;;;;;7882994;28;20556;-88
2023/03/19 16:55:52;;;;;;;12.63;6.30;;;13.00;99.90;;;;;;7871636;28;20201;-88
2023/03/19 16:59:38;;;;;;;12.13;6.70;;;13.00;99.90;;;;;;7878686;28;20192;-88
2023/03/19 17:03:24;;;;;;;10.03;5.17;;;12.90;99.90;;;;;;7904169;28;20279;-88
2023/03/19 17:07:11;;;;;;;7.43;4.10;;;12.90;99.90;;;;;;7902156;28;20188;-89
2023/03/19 17:10:57;;;;;;;5.57;3.67;;;12.80;99.90;;;;;;7906701;28;20842;-88
2023/03/19 17:14:43;;;;;;;6.33;3.43;;;12.80;99.90;;;;;;7870608;28;20568;-88
2023/03/19 17:18:32;;;;;;;11.43;5.80;;;12.70;99.90;;;;;;7877886;28;20181;-88
2023/03/19 17:22:18;;;;;;;7.17;3.70;;;12.60;99.90;;;;;;7890003;28;20185;-88
2023/03/19 17:26:22;;;;;;;13.10;4.50;;;12.60;99.90;;;;;;7902293;28;20228;-88
2023/03/19 17:30:08;;;;;;;6.13;3.57;;;12.50;99.90;;;;;;7895202;28;20217;-89
2023/03/19 17:34:16;;;;;;;5.57;3.40;;;12.50;99.90;;;;;;7918810;28;20631;-88
2023/03/19 17:38:02;;;;;;;10.30;3.40;;;12.40;99.90;;;;;;7903230;28;20188;-88
2023/03/19 17:41:48;;;;;;;6.37;4.20;;;12.40;99.90;;;;;;7916039;28;20197;-85
2023/03/19 17:45:34;;;;;;;4.57;3.23;;;12.70;99.90;;;;;;7916620;27;20578;-85
2023/03/19 17:49:23;;;;;;;4.70;3.33;;;12.90;99.90;;;;;;7884631;28;20305;-88
2023/03/19 17:53:10;;;;;;;5.50;3.33;;;13.10;99.90;;;;;;7875024;28;20209;-88
2023/03/19 17:56:56;;;;;;;4.30;3.13;;;13.30;99.90;;;;;;7871009;28;20261;-88
2023/03/19 18:00:42;;;;;;;9.43;4.10;;;13.40;99.90;;;;;;7874806;28;20177;-88
2023/03/19 18:04:28;;;;;;;7.50;4.57;;;13.50;99.90;;;;;;7887681;28;20208;-87
2023/03/19 18:08:16;;;;;;;8.87;5.43;;;13.70;99.90;;;;;;7899861;28;20220;-87
2023/03/19 18:12:02;;;;;;;11.07;6.50;;;13.70;99.90;;;;;;7919936;28;20219;-88
2023/03/19 18:15:48;;;;;;;6.70;4.80;;;13.70;99.90;;;;;;7919519;28;20213;-88
2023/03/19 18:19:37;;;;;;;7.30;5.37;;;13.70;99.90;;;;;;7898057;28;20184;-87
2023/03/19 18:23:23;;;;;;;8.03;4.67;;;13.70;99.90;;;;;;7922367;28;20200;-88
2023/03/19 18:27:09;;;;;;;4.87;3.30;;;13.80;99.90;;;;;;7918980;28;20200;-87
2023/03/19 18:30:54;;;;;;;4.80;3.37;;;13.80;99.90;;;;;;7908133;28;20184;-88
2023/03/19 18:34:40;;;;;;;4.33;3.63;;;13.80;99.90;;;;;;7891211;28;20762;-87
2023/03/19 18:38:28;;;;;;;4.30;3.40;;;13.80;99.90;;;;;;7896577;28;20192;-88
2023/03/19 18:42:13;;;;;;;7.50;3.57;;;13.70;99.90;;;;;;7899067;28;20204;-89
2023/03/19 18:45:59;;;;;;;4.70;3.27;;;13.30;99.90;;;;;;7911802;28;20224;-89
2023/03/19 18:49:45;;;;;;;9.77;4.23;;;13.20;99.90;;;;;;7924233;28;20207;-82
2023/03/19 18:53:31;;;;;;;7.13;4.03;;;13.00;99.90;;;;;;7904754;28;20291;-87
2023/03/19 18:57:17;;;;;;;6.33;4.40;;;13.00;99.90;;;;;;7912938;28;20187;-88
2023/03/19 19:01:03;;;;;;;8.50;5.40;;;13.00;99.90;;;;;;7925446;28;20272;-87
2023/03/19 19:04:50;;;;;;;8.50;5.57;;;13.00;99.90;;;;;;7892083;28;20192;-87
2023/03/19 19:08:35;;;;;;;8.37;4.73;;;13.10;99.90;;;;;;7914197;28;20307;-87
2023/03/19 19:12:21;;;;;;;7.23;3.90;;;13.20;99.90;;;;;;7914770;28;20181;-88
2023/03/19 19:16:19;;;;;;;6.13;3.67;;;13.20;99.90;;;;;;7910470;28;20224;-87
2023/03/19 19:20:06;;;;;;;6.83;4.57;;;13.00;99.90;;;;;;7914105;28;20579;-87
2023/03/19 19:23:51;;;;;;;7.23;4.77;;;12.90;99.90;;;;;;7910075;28;20215;-88
2023/03/19 19:27:38;;;;;;;8.57;4.63;;;12.90;99.90;;;;;;7880015;28;20197;-87
2023/03/19 19:31:30;;;;;;;6.37;4.37;;;13.00;99.90;;;;;;7931591;28;20271;-87
2023/03/19 19:35:27;;;;;;;7.33;4.10;;;13.00;99.90;;;;;;7913370;28;20642;-86
2023/03/19 19:39:13;;;;;;;7.17;3.80;;;13.00;99.90;;;;;;7902834;28;20189;-87
2023/03/19 19:42:59;;;;;;;3.90;3.00;;;13.10;99.90;;;;;;7919956;28;20185;-88
2023/03/19 19:46:45;;;;;;;7.90;4.17;;;13.00;99.90;;;;;;7907528;28;20196;-88
2023/03/19 19:50:30;;;;;;;8.43;3.57;;;13.10;99.90;;;;;;7913224;28;20213;-86
2023/03/19 19:54:16;;;;;;;8.33;4.30;;;13.10;99.90;;;;;;7882923;28;20667;-87
2023/03/19 19:58:02;;;;;;;5.40;3.90;;;13.10;99.90;;;;;;7893175;28;20181;-87
2023/03/19 20:01:47;;;;;;;8.23;4.37;;;13.00;99.90;;;;;;7946885;27;20190;-86
2023/03/19 20:05:33;;;;;;;4.50;3.43;;;13.00;99.90;;;;;;7922518;27;20193;-86
2023/03/19 20:09:20;;;;;;;4.80;3.00;;;13.00;99.90;;;;;;7911415;28;20214;-87
2023/03/19 20:13:35;;;;;;;7.03;3.40;;;12.90;99.90;;;;;;7895424;28;20250;-87
2023/03/19 20:17:21;;;;;;;4.17;3.20;;;12.80;99.90;;;;;;7911192;28;20176;-87
2023/03/19 20:21:06;;;;;;;4.13;3.03;;;12.80;99.90;;;;;;7940924;27;20188;-87
2023/03/19 20:24:52;;;;;;;3.80;2.77;;;12.80;99.90;;;;;;7930259;28;20204;-87
2023/03/19 20:28:38;;;;;;;4.63;3.07;;;12.70;99.90;;;;;;7921963;28;20215;-87
2023/03/19 20:32:26;;;;;;;3.27;2.43;;;12.70;99.90;;;;;;7909412;28;20188;-86
2023/03/19 20:36:14;;;;;;;5.73;3.30;;;12.70;99.90;;;;;;7902488;28;20255;-86
2023/03/19 20:40:00;;;;;;;7.37;3.83;;;12.70;99.90;;;;;;7908900;28;20189;-86
2023/03/19 20:43:46;;;;;;;4.93;3.13;;;12.60;99.90;;;;;;7913358;28;20235;-87
2023/03/19 20:47:33;;;;;;;3.50;2.50;;;12.60;99.90;;;;;;7929544;28;20180;-87
2023/03/19 20:51:23;;;;;;;5.37;2.90;;;12.60;99.90;;;;;;7911017;28;20193;-87
2023/03/19 20:55:15;;;;;;;19.80;5.83;;;12.50;99.90;;;;;;7894859;28;20211;-87
2023/03/19 20:59:01;;;;;;;13.60;4.67;;;12.50;99.90;;;;;;7929124;28;20188;-86
2023/03/19 21:02:48;;;;;;;7.77;3.60;;;12.40;99.90;;;;;;7905585;28;20181;-87
2023/03/19 21:06:34;;;;;;;9.60;4.07;;;12.30;99.90;;;;;;7908097;28;20269;-86
2023/03/19 21:10:40;;;;;;;11.30;4.80;;;12.30;99.90;;;;;;7896551;28;20213;-87
2023/03/19 21:14:27;;;;;;;11.03;4.60;;;12.30;99.90;;;;;;7887401;28;20223;-87
2023/03/19 21:18:12;;;;;;;10.20;4.87;;;12.20;99.90;;;;;;7916544;28;20210;-87
2023/03/19 21:21:58;;;;;;;7.90;3.80;;;12.20;99.90;;;;;;7910795;28;20181;-87
2023/03/19 21:25:45;;;;;;;5.33;2.80;;;12.20;99.90;;;;;;7917566;28;20205;-87
2023/03/19 21:29:32;;;;;;;4.03;2.43;;;12.10;99.90;;;;;;7902402;28;20212;-86
2023/03/19 21:33:24;;;;;;;4.03;2.40;;;12.10;99.90;;;;;;7924392;28;20200;-87
2023/03/19 21:37:10;;;;;;;3.23;2.00;;;12.00;99.90;;;;;;7894361;28;20208;-86
2023/03/19 21:40:59;;;;;;;3.50;2.27;;;12.00;99.90;;;;;;7887732;28;20250;-87
2023/03/19 21:44:46;;;;;;;3.17;2.40;;;12.00;99.90;;;;;;7890394;28;20211;-88
2023/03/19 21:48:34;;;;;;;3.60;3.03;;;12.00;99.90;;;;;;7909935;28;20256;-87
2023/03/19 21:52:20;;;;;;;5.67;3.20;;;11.90;99.90;;;;;;7880417;28;20193;-87
2023/03/19 21:56:40;;;;;;;6.30;3.67;;;11.90;99.90;;;;;;7907578;28;20200;-87
2023/03/19 22:00:26;;;;;;;3.90;3.00;;;11.90;99.90;;;;;;7881755;28;20860;-87
2023/03/19 22:04:12;;;;;;;8.07;5.23;;;11.80;99.90;;;;;;7909243;28;20264;-87
2023/03/19 22:07:58;;;;;;;4.97;3.93;;;11.80;99.90;;;;;;7907102;28;20232;-87
2023/03/19 22:11:44;;;;;;;7.07;4.47;;;11.80;99.90;;;;;;7891098;28;20664;-87
2023/03/19 22:15:34;;;;;;;8.37;5.27;;;11.80;99.90;;;;;;7908238;28;20206;-87
2023/03/19 22:19:20;;;;;;;8.23;4.13;;;11.70;99.90;;;;;;7905213;28;20193;-86
2023/03/19 22:23:07;;;;;;;8.67;4.70;;;11.70;99.90;;;;;;7908751;28;20189;-87
2023/03/19 22:26:56;;;;;;;6.53;5.17;;;11.70;99.90;;;;;;7900257;28;20189;-87
2023/03/19 22:30:42;;;;;;;7.97;5.07;;;11.60;99.90;;;;;;7921090;28;20409;-87
2023/03/19 22:34:28;;;;;;;7.33;4.70;;;11.60;99.90;;;;;;7922565;28;20197;-87
2023/03/19 22:38:15;;;;;;;8.67;5.07;;;11.60;99.90;;;;;;7892446;28;20192;-87
2023/03/19 22:42:00;;;;;;;7.17;5.37;;;11.50;99.90;;;;;;7891917;28;20218;-86
2023/03/19 22:45:53;;;;;;;6.90;5.30;;;11.50;99.90;;;;;;7917451;28;20204;-87
2023/03/19 22:49:38;;;;;;;10.90;7.17;;;11.40;99.90;;;;;;7895482;28;20209;-88
2023/03/19 22:53:30;;;;;;;9.93;6.53;;;11.40;99.90;;;;;;7894286;28;20205;-87
2023/03/19 22:57:16;;;;;;;9.57;7.47;;;11.40;99.90;;;;;;7887129;28;20760;-87
2023/03/19 23:01:02;;;;;;;9.73;6.43;;;11.30;99.90;;;;;;7919749;28;20180;-88
2023/03/19 23:04:47;;;;;;;8.17;6.37;;;11.30;99.90;;;;;;7906145;28;20215;-86
2023/03/19 23:08:33;;;;;;;10.67;6.27;;;11.30;99.90;;;;;;7893393;28;20308;-88
2023/03/19 23:12:19;;;;;;;8.63;6.43;;;11.20;99.90;;;;;;7891948;28;20185;-87
2023/03/19 23:16:20;;;;;;;9.03;6.50;;;11.20;99.90;;;;;;7899449;28;20200;-87
2023/03/19 23:20:14;;;;;;;9.13;6.57;;;11.20;99.90;;;;;;7910297;28;20184;-87
2023/03/19 23:24:01;;;;;;;10.50;7.20;;;11.20;99.90;;;;;;7892399;28;20214;-87
2023/03/19 23:27:47;;;;;;;11.80;7.60;;;11.10;99.90;;;;;;7907361;28;20697;-86
2023/03/19 23:31:33;;;;;;;11.47;7.20;;;11.10;99.90;;;;;;7928990;28;20184;-87
2023/03/19 23:35:21;;;;;;;12.23;7.87;;;11.10;99.90;;;;;;7889991;28;20247;-88
2023/03/19 23:39:07;;;;;;;8.97;6.13;;;11.10;99.90;;;;;;7904465;28;20185;-88
2023/03/19 23:42:54;;;;;;;8.40;5.97;;;11.00;99.90;;;;;;7919423;28;20697;-87
2023/03/19 23:46:40;;;;;;;6.53;5.37;;;11.00;99.90;;;;;;7905279;28;20177;-88
2023/03/19 23:50:26;;;;;;;12.20;5.27;;;11.00;99.90;;;;;;7915791;28;20204;-88
2023/03/19 23:54:30;;;;;;;7.10;5.50;;;10.90;99.90;;;;;;7922816;28;20285;-89
2023/03/19 23:58:16;;;;;;;7.00;5.37;;;11.00;99.90;;;;;;7906152;28;20244;-88
